Terminal Aerodrome Forecast
Issued by NWS Pittsburgh, PA

Current Version | Previous Version | Graphics & Text | Print | Product List | Glossary On
Versions: 1 2 3 4 5 6 7 8 9 10 11 12 13 14 15 16 17 18 19 20 21 22 23 24 25 26 27 28 29 30 31 32 33 34 35
432
FTUS41 KPBZ 260835 AAA
TAFPIT
TAF AMD
KPIT 260835Z 2609/2712 23008KT P6SM SCT070 WS020/25040KT
     FM260930 31015G30KT 5SM -TSRA BKN040CB
     FM261100 24011KT P6SM BKN050
     FM261500 27012G18KT P6SM BKN050
     FM261700 32012G18KT P6SM BKN040
     FM262200 33007KT P6SM BKN035
      AMD LTD TO CLD VIS AND WIND=

USA.gov is the U.S. government's official web portal to all federal, state and local government web resources and services.